Main page
METAR-TAF:

METAR-TAF

Airports :

Brest Airport

Brest, Belarus

latitude: 52-06-30N, longitude: 023-53-48E, elevation: 143 m

Current weather observation

The report was made 8 hours and 41 minutes ago, at 13:30 UTC
Calm wind
Temperature -2°C
Humidity 74%
Pressure 1016 hPa
Visibility: 7000 m
Scattered clouds at a height of 3000 ft
Scattered clouds at a height of 10000 ft

METAR: UMBB 221330Z 00000MPS 7000 SCT030 SCT100 M02/M06 Q1016 R29/450260 NOSIG

Time: 01:11 (22:11 UTC)

Forecast

The report was made 5 hours and 6 minutes ago, at 17:05 UTC
Forecast valid from 22 at 18 UTC to 23 at 03 UTC
Wind 4 kt from variable directions
Visibility: 5000 m
Broken clouds at a height of 1000 ft
mist
Temporary
from 22 at 21 UTC to 23 at 03 UTC
Visibility: 2000 m
Broken clouds at a height of 500 ft
mist

TAF: UMBB 221705Z 2218/2303 VRB02MPS 5000 BR BKN010 TEMPO 2221/2303 2000 BR BKN005

Weather observations and forecasts of more than 4000 airports (METAR and TAF reports).

The available stations are represented by yellow and red dots on the map.

Hover mouse over dot to see the name of the station.

Then click to see weather observations and forecasts.

To change the map : click on the green buttons with a black cross to zoom in, on the green button with a dash to zoom out, or on the green arrows for adjacent maps.


METAR-TAF: